createdAt,value
2017-11-09T00:02:27.927Z,85.70
2017-11-09T00:07:29.657Z,89.60
2017-11-09T00:12:32.099Z,109.97
2017-11-09T00:17:33.874Z,99.97
2017-11-09T00:22:36.337Z,109.10
2017-11-09T00:27:38.023Z,97.50
2017-11-09T00:32:40.616Z,142.70
2017-11-09T00:37:43.053Z,94.37
2017-11-09T00:42:44.909Z,102.70
2017-11-09T00:47:46.629Z,106.33
2017-11-09T00:52:48.384Z,110.17
2017-11-09T00:57:50.077Z,106.10
2017-11-09T01:02:51.800Z,91.07
2017-11-09T01:07:53.501Z,101.70
2017-11-09T01:12:55.928Z,105.10
2017-11-09T01:17:58.696Z,102.90
2017-11-09T01:23:00.485Z,94.83
2017-11-09T01:28:02.356Z,108.27
2017-11-09T01:33:04.818Z,103.60
2017-11-09T01:38:06.550Z,107.17
2017-11-09T01:43:08.311Z,96.57
2017-11-09T01:48:10.088Z,105.10
2017-11-09T01:53:12.521Z,105.90
2017-11-09T01:58:14.274Z,104.10
2017-11-09T02:03:16.040Z,91.40
2017-11-09T02:08:17.843Z,99.07
2017-11-09T02:13:19.543Z,86.77
2017-11-09T02:18:21.326Z,101.33
2017-11-09T02:23:23.069Z,93.63
2017-11-09T02:28:24.815Z,90.00
2017-11-09T02:33:26.592Z,93.97
2017-11-09T02:38:28.405Z,85.63
2017-11-09T02:43:30.135Z,85.30
2017-11-09T02:48:31.870Z,98.40
2017-11-09T02:53:33.559Z,92.00
2017-11-09T02:58:35.296Z,86.33
2017-11-09T03:03:37.024Z,90.87
2017-11-09T03:08:38.710Z,91.23
2017-11-09T03:13:40.443Z,97.00
2017-11-09T03:18:42.120Z,104.03
2017-11-09T03:23:43.820Z,104.80
2017-11-09T03:28:45.499Z,93.63
2017-11-09T03:33:47.181Z,91.53
2017-11-09T03:38:48.877Z,96.93
2017-11-09T03:43:51.321Z,98.00
2017-11-09T03:48:53.027Z,99.53
2017-11-09T03:53:54.719Z,102.20
2017-11-09T03:58:56.464Z,100.00
2017-11-09T04:03:58.921Z,99.97
2017-11-09T04:09:00.663Z,96.00
2017-11-09T04:14:02.410Z,103.40
2017-11-09T04:19:04.572Z,98.50
2017-11-09T04:24:06.265Z,96.50
2017-11-09T04:29:07.968Z,108.80
2017-11-09T04:34:09.767Z,95.53
2017-11-09T04:39:11.539Z,103.20
2017-11-09T04:44:13.283Z,94.00
2017-11-09T04:49:14.964Z,95.77
2017-11-09T04:54:16.794Z,113.80
2017-11-09T04:59:19.224Z,97.20
2017-11-09T05:04:20.893Z,93.17
2017-11-09T05:09:22.574Z,92.03
2017-11-09T05:14:24.275Z,115.67
2017-11-09T05:19:25.991Z,116.90
2017-11-09T05:24:28.432Z,106.20
2017-11-09T05:29:30.116Z,101.70
2017-11-09T05:34:33.957Z,120.13
2017-11-09T05:39:36.492Z,107.73
2017-11-09T05:44:38.176Z,128.23
2017-11-09T05:49:39.959Z,122.50
2017-11-09T05:54:41.773Z,117.60
2017-11-09T05:59:44.230Z,110.97
2017-11-09T06:04:45.947Z,106.07
2017-11-09T06:09:47.685Z,115.20
2017-11-09T06:14:50.320Z,108.73
2017-11-09T06:19:52.105Z,102.50
2017-11-09T06:24:54.691Z,121.80
2017-11-09T06:29:57.269Z,113.20
2017-11-09T06:34:59.629Z,111.93
2017-11-09T06:40:02.171Z,118.33
2017-11-09T06:45:03.874Z,113.27
2017-11-09T06:50:06.586Z,102.93
2017-11-09T06:55:09.011Z,124.37
2017-11-09T07:00:11.458Z,148.23
2017-11-09T07:05:15.660Z,125.50
2017-11-09T07:10:18.787Z,137.53
2017-11-09T07:15:20.602Z,146.90
2017-11-09T07:20:22.543Z,146.57
2017-11-09T07:25:24.303Z,138.93
2017-11-09T07:30:26.058Z,139.13
2017-11-09T07:35:27.776Z,135.97
2017-11-09T07:40:33.674Z,128.40
2017-11-09T07:45:37.732Z,131.37
2017-11-09T07:50:39.768Z,133.27
2017-11-09T07:55:41.522Z,132.67
2017-11-09T08:00:43.235Z,128.77
2017-11-09T08:05:44.944Z,123.03
2017-11-09T08:10:47.144Z,129.47
2017-11-09T08:15:48.900Z,127.57
2017-11-09T08:20:51.040Z,121.53
2017-11-09T08:25:55.670Z,121.37
2017-11-09T08:31:00.955Z,132.23
2017-11-09T08:36:02.704Z,128.97
2017-11-09T08:41:04.424Z,117.67
2017-11-09T08:46:06.951Z,135.27
2017-11-09T08:51:09.436Z,136.53
2017-11-09T08:56:11.325Z,133.03
2017-11-09T09:01:13.068Z,142.90
2017-11-09T09:06:14.755Z,133.80
2017-11-09T09:11:16.635Z,127.07
2017-11-09T09:16:18.436Z,137.60
2017-11-09T09:27:07.165Z,139.20
2017-11-09T09:32:09.260Z,140.47
2017-11-09T09:43:01.311Z,137.07
2017-11-09T09:48:03.894Z,136.50
2017-11-09T09:53:05.773Z,146.77
2017-11-09T09:58:07.509Z,119.97
2017-11-09T10:03:11.052Z,131.23
2017-11-09T10:08:12.870Z,133.70
2017-11-09T10:13:16.166Z,137.97
2017-11-09T10:18:17.988Z,139.37
2017-11-09T10:23:22.671Z,133.80
2017-11-09T10:28:25.273Z,136.93
2017-11-09T10:33:28.474Z,119.80
2017-11-09T10:38:30.264Z,128.37
2017-11-09T10:43:31.975Z,122.40
2017-11-09T10:48:33.748Z,126.07
2017-11-09T10:53:35.518Z,120.63
2017-11-09T10:58:37.344Z,119.40
2017-11-09T11:03:39.092Z,125.37
2017-11-09T11:08:41.520Z,128.10
2017-11-09T11:13:43.176Z,126.63
2017-11-09T11:18:44.868Z,119.17
2017-11-09T11:23:46.545Z,116.37
2017-11-09T11:28:48.216Z,99.53
2017-11-09T11:33:49.897Z,99.83
2017-11-09T11:38:52.320Z,98.20
2017-11-09T11:43:54.035Z,91.17
2017-11-09T11:48:55.725Z,94.30
2017-11-09T11:53:57.414Z,89.30
2017-11-09T11:58:59.112Z,97.73
2017-11-09T12:04:00.809Z,99.80
2017-11-09T12:09:02.601Z,92.20
2017-11-09T12:14:04.336Z,103.93
2017-11-09T12:19:06.045Z,97.93
2017-11-09T12:24:07.762Z,111.13
2017-11-09T12:29:09.481Z,101.57
2017-11-09T12:34:11.892Z,109.70
2017-11-09T12:39:14.364Z,100.93
2017-11-09T12:44:16.058Z,100.20
2017-11-09T12:49:17.780Z,103.03
2017-11-09T12:54:19.477Z,95.37
2017-11-09T12:59:21.214Z,99.90
2017-11-09T13:04:23.637Z,87.63
2017-11-09T13:09:26.103Z,96.60
2017-11-09T13:14:27.868Z,100.10
2017-11-09T13:19:32.457Z,94.63
2017-11-09T13:24:34.199Z,86.00
2017-11-09T13:29:35.873Z,82.90
2017-11-09T13:34:37.610Z,76.33
2017-11-09T13:39:39.338Z,66.67
2017-11-09T13:44:41.177Z,63.23
2017-11-09T13:49:42.859Z,73.10
2017-11-09T13:54:44.560Z,60.63
2017-11-09T13:59:46.414Z,67.53
2017-11-09T14:04:48.111Z,69.53
2017-11-09T14:09:49.823Z,62.70
2017-11-09T14:14:51.505Z,68.43
2017-11-09T14:19:53.187Z,70.00
2017-11-09T14:24:55.604Z,65.63
2017-11-09T14:29:58.054Z,73.30
2017-11-09T14:34:59.809Z,68.03
2017-11-09T14:40:02.262Z,73.40
2017-11-09T14:45:03.961Z,60.50
2017-11-09T14:50:05.656Z,67.27
2017-11-09T14:55:07.362Z,63.10
2017-11-09T15:00:09.076Z,70.40
2017-11-09T15:05:10.776Z,80.07
2017-11-09T15:10:13.105Z,83.30
2017-11-09T15:15:15.425Z,77.07
2017-11-09T15:20:17.159Z,83.80
2017-11-09T15:25:18.895Z,78.87
2017-11-09T15:30:20.658Z,81.47
2017-11-09T15:35:22.326Z,94.47
2017-11-09T15:40:24.733Z,85.50
2017-11-09T15:45:27.137Z,87.13
2017-11-09T15:50:28.813Z,89.63
2017-11-09T15:55:31.485Z,87.00
2017-11-09T16:00:33.939Z,89.37
2017-11-09T16:05:35.706Z,99.53
2017-11-09T16:10:39.288Z,95.77
2017-11-09T16:15:40.970Z,101.30
2017-11-09T16:20:42.665Z,91.37
2017-11-09T16:25:44.366Z,99.43
2017-11-09T16:30:46.483Z,93.10
2017-11-09T16:35:48.176Z,97.00
2017-11-09T16:40:49.907Z,100.00
2017-11-09T16:45:51.610Z,103.97
2017-11-09T16:50:53.290Z,98.73
2017-11-09T16:55:55.795Z,87.97
2017-11-09T17:00:57.512Z,100.37
2017-11-09T17:05:59.199Z,95.90
2017-11-09T17:11:00.880Z,88.50
2017-11-09T17:16:02.612Z,98.50
2017-11-09T17:21:04.328Z,109.97
2017-11-09T17:26:06.018Z,108.53
2017-11-09T17:31:07.687Z,97.43
2017-11-09T17:36:09.366Z,109.10
2017-11-09T17:41:11.068Z,111.87
2017-11-09T17:46:12.761Z,121.23
2017-11-09T17:51:14.512Z,99.07
2017-11-09T17:56:16.344Z,101.67
2017-11-09T18:01:18.077Z,102.10
2017-11-09T18:06:19.763Z,102.60
2017-11-09T18:11:21.446Z,109.53
2017-11-09T18:16:25.618Z,100.23
2017-11-09T18:21:27.347Z,90.93
2017-11-09T18:26:29.025Z,105.53
2017-11-09T18:31:33.519Z,107.87
2017-11-09T18:36:35.264Z,99.73
2017-11-09T18:41:36.980Z,101.93
2017-11-09T18:46:38.700Z,105.07
2017-11-09T18:51:43.810Z,104.40
2017-11-09T18:56:50.610Z,97.80
2017-11-09T19:02:01.302Z,108.80
2017-11-09T19:07:11.552Z,107.50
2017-11-09T19:12:20.273Z,109.10
2017-11-09T19:17:27.413Z,109.40
2017-11-09T19:22:38.286Z,108.10
2017-11-09T19:27:49.605Z,96.67
2017-11-09T19:32:57.224Z,107.73
2017-11-09T19:38:05.559Z,118.50
2017-11-09T19:43:12.096Z,111.27
2017-11-09T19:48:20.338Z,110.77
2017-11-09T19:53:25.105Z,111.30
2017-11-09T19:58:32.556Z,99.17
2017-11-09T20:03:40.017Z,96.30
2017-11-09T20:08:47.146Z,101.33
2017-11-09T20:13:54.515Z,103.47
2017-11-09T20:19:00.653Z,109.80
2017-11-09T20:24:08.183Z,107.57
2017-11-09T20:29:15.172Z,109.33
2017-11-09T20:34:20.938Z,119.97
2017-11-09T20:39:27.103Z,124.60
2017-11-09T20:44:29.306Z,103.27
2017-11-09T20:49:34.022Z,107.23
2017-11-09T20:54:35.787Z,102.90
2017-11-09T20:59:37.587Z,106.63
2017-11-09T21:04:39.299Z,86.37
2017-11-09T21:09:41.057Z,102.37
2017-11-09T21:14:44.023Z,104.77
2017-11-09T21:19:47.735Z,90.20
2017-11-09T21:24:52.883Z,88.13
2017-11-09T21:29:58.377Z,93.07
2017-11-09T21:35:02.163Z,91.77
2017-11-09T21:40:05.830Z,91.80
2017-11-09T21:45:08.249Z,84.17
2017-11-09T21:50:10.617Z,78.67
2017-11-09T21:55:13.074Z,89.40
2017-11-09T22:00:15.317Z,92.07
2017-11-09T22:05:17.646Z,89.50
2017-11-09T22:10:20.803Z,97.27
2017-11-09T22:15:23.138Z,89.30
2017-11-09T22:20:25.515Z,92.73
2017-11-09T22:25:28.022Z,83.87
2017-11-09T22:30:30.120Z,105.07
2017-11-09T22:35:32.882Z,87.33
2017-11-09T22:40:34.583Z,80.80
2017-11-09T22:45:36.267Z,83.50
2017-11-09T22:50:37.960Z,76.27
2017-11-09T22:55:39.636Z,86.80
2017-11-09T23:00:42.130Z,81.77
2017-11-09T23:05:43.807Z,70.00
2017-11-09T23:10:45.554Z,75.87
2017-11-09T23:15:47.988Z,71.33
2017-11-09T23:20:49.743Z,62.00
2017-11-09T23:25:51.524Z,67.83
2017-11-09T23:30:53.229Z,70.43
2017-11-09T23:35:54.963Z,63.10
2017-11-09T23:40:57.388Z,66.13
2017-11-09T23:45:59.855Z,61.17
2017-11-09T23:51:01.560Z,53.07
2017-11-09T23:56:03.242Z,59.93
